Home > Products > Valid Products > TAF

000
FTUS42 KCHS 222339
TAFSAV
TAF
KSAV 222339Z 2300/2324 VRB04KT P6SM SKC
     FM231300 06010KT P6SM FEW045
     FM231700 09014G21KT P6SM SCT045=



000
FTUS42 KCHS 222339
TAFCHS
TAF
KCHS 222339Z 2300/2324 VRB04KT P6SM SKC
     FM231300 08010KT P6SM FEW045
     FM231600 10013G20KT P6SM SCT045=



000
FTUS42 KCHS 222339
TAFCHS
TAF
KCHS 222339Z 2300/2324 VRB04KT P6SM SKC
     FM231300 08010KT P6SM FEW045
     FM231600 10013G20KT P6SM SCT045=



000
FTUS42 KCHS 222339
TAFSAV
TAF
KSAV 222339Z 2300/2324 VRB04KT P6SM SKC
     FM231300 06010KT P6SM FEW045
     FM231700 09014G21KT P6SM SCT045=



000
FTUS42 KCHS 221720
TAFSAV
TAF
KSAV 221720Z 2218/2318 07008KT P6SM SCT035 BKN050
     FM230000 03003KT P6SM SKC
     FM231400 11011KT P6SM SCT050=



000
FTUS42 KCHS 221720
TAFCHS
TAF
KCHS 221720Z 2218/2318 04009KT P6SM SCT045
     FM230000 06004KT P6SM SKC
     FM231400 10012KT P6SM FEW050=



000
FTUS42 KCHS 221720
TAFSAV
TAF
KSAV 221720Z 2218/2318 07008KT P6SM SCT035 BKN050
     FM230000 03003KT P6SM SKC
     FM231400 11011KT P6SM SCT050=



000
FTUS42 KCHS 221720
TAFCHS
TAF
KCHS 221720Z 2218/2318 04009KT P6SM SCT045
     FM230000 06004KT P6SM SKC
     FM231400 10012KT P6SM FEW050=



000
FTUS42 KCHS 221359 AAA
TAFSAV
TAF AMD
KSAV 221359Z 2214/2312 04012G18KT P6SM BKN025
     FM221600 04012KT P6SM SCT035 BKN200
     FM221800 03009KT P6SM SCT050
     FM230000 03004KT P6SM SKC=



000
FTUS42 KCHS 221127
TAFSAV
TAF
KSAV 221127Z 2212/2312 01010KT P6SM SCT050 BKN250
     FM221800 03009KT P6SM SCT050
     FM230000 03004KT P6SM SKC=



000
FTUS42 KCHS 221127
TAFCHS
TAF
KCHS 221127Z 2212/2312 03011G17KT P6SM BKN050
     FM221700 04009KT P6SM SCT050
     FM230000 06005KT P6SM SKC=



000
FTUS42 KCHS 221127
TAFCHS
TAF
KCHS 221127Z 2212/2312 03011G17KT P6SM BKN050
     FM221700 04009KT P6SM SCT050
     FM230000 06005KT P6SM SKC=



000
FTUS42 KCHS 221127
TAFSAV
TAF
KSAV 221127Z 2212/2312 01010KT P6SM SCT050 BKN250
     FM221800 03009KT P6SM SCT050
     FM230000 03004KT P6SM SKC=



000
FTUS42 KCHS 220526
TAFSAV
TAF
KSAV 220526Z 2206/2306 32007KT P6SM SCT250
     FM221300 03010KT P6SM SCT050
     FM230000 04004KT P6SM SKC=



000
FTUS42 KCHS 220526
TAFCHS
TAF
KCHS 220526Z 2206/2306 36010KT P6SM SCT050 SCT250
     FM221500 03009KT P6SM SCT050
     FM230000 06004KT P6SM SKC=



000
FTUS42 KCHS 220526
TAFSAV
TAF
KSAV 220526Z 2206/2306 32007KT P6SM SCT250
     FM221300 03010KT P6SM SCT050
     FM230000 04004KT P6SM SKC=



000
FTUS42 KCHS 220526
TAFCHS
TAF
KCHS 220526Z 2206/2306 36010KT P6SM SCT050 SCT250
     FM221500 03009KT P6SM SCT050
     FM230000 06004KT P6SM SKC=



000
FTUS42 KCHS 212336
TAFCHS
TAF
KCHS 212336Z 2200/2224 28008KT P6SM SKC
     FM220600 01012KT P6SM FEW050
     FM221300 03013G19KT P6SM FEW050
     FM221800 03009KT P6SM FEW050=



000
FTUS42 KCHS 212336
TAFSAV
TAF
KSAV 212336Z 2200/2224 28010KT P6SM SKC
     FM220600 33009KT P6SM SKC
     FM221300 02013G19KT P6SM FEW050
     FM221900 05009KT P6SM FEW050=



000
FTUS42 KCHS 212336
TAFSAV
TAF
KSAV 212336Z 2200/2224 28010KT P6SM SKC
     FM220600 33009KT P6SM SKC
     FM221300 02013G19KT P6SM FEW050
     FM221900 05009KT P6SM FEW050=



000
FTUS42 KCHS 212336
TAFCHS
TAF
KCHS 212336Z 2200/2224 28008KT P6SM SKC
     FM220600 01012KT P6SM FEW050
     FM221300 03013G19KT P6SM FEW050
     FM221800 03009KT P6SM FEW050=



000
FTUS42 KCHS 211729
TAFSAV
TAF
KSAV 211729Z 2118/2218 28014G21KT P6SM SKC
     FM220200 31007KT P6SM SKC
     FM221200 02011KT P6SM SCT200=



000
FTUS42 KCHS 211729
TAFCHS
TAF
KCHS 211729Z 2118/2218 26014G22KT P6SM FEW060 SCT250
     FM220000 28009KT P6SM SKC
     FM221000 01011KT P6SM FEW050 SCT200=



000
FTUS42 KCHS 211133
TAFSAV
TAF
KSAV 211133Z 2112/2212 28010KT P6SM SCT200
     FM211700 28011G18KT P6SM FEW060 SCT250
     FM220000 31007KT P6SM SCT250=



000
FTUS42 KCHS 211133
TAFCHS
TAF
KCHS 211133Z 2112/2212 25010KT P6SM FEW040
     FM211700 26013G20KT P6SM FEW060 SCT250
     FM212300 28008KT P6SM SKC
     FM220900 01011KT P6SM SCT250=



000
FTUS42 KCHS 210522
TAFSAV
TAF
KSAV 210522Z 2106/2206 VRB03KT P6SM FEW060
     FM211330 29009KT P6SM FEW060
     FM211700 28011G18KT P6SM FEW060 SCT250
     FM220000 28007KT P6SM SKC=



000
FTUS42 KCHS 210522
TAFCHS
TAF
KCHS 210522Z 2106/2206 VRB03KT P6SM FEW060 BKN180
     FM211330 27008KT P6SM SCT060
     FM211700 27013G19KT P6SM FEW060 SCT250
     FM220000 28008KT P6SM SKC=



000
FTUS42 KCHS 210522
TAFCHS
TAF
KCHS 210522Z 2106/2206 VRB03KT P6SM FEW060 BKN180
     FM211330 27008KT P6SM SCT060
     FM211700 27013G19KT P6SM FEW060 SCT250
     FM220000 28008KT P6SM SKC=



000
FTUS42 KCHS 210522
TAFSAV
TAF
KSAV 210522Z 2106/2206 VRB03KT P6SM FEW060
     FM211330 29009KT P6SM FEW060
     FM211700 28011G18KT P6SM FEW060 SCT250
     FM220000 28007KT P6SM SKC=



000
FTUS42 KCHS 210258 AAB
TAFSAV
TAF AMD
KSAV 210258Z 2103/2124 VRB03KT P6SM FEW060
     FM211330 28009KT P6SM FEW060
     FM211700 29010G17KT P6SM FEW060=



000
FTUS42 KCHS 210255 AAB
TAFCHS
TAF AMD
KCHS 210255Z 2103/2124 VRB03KT P6SM VCSH BKN060
      TEMPO 2103/2104 6SM -SHRA
     FM210400 VRB03KT P6SM FEW060
     FM211330 28008KT P6SM SCT060
     FM211700 27013G20KT P6SM FEW060=



000
FTUS42 KCHS 210255 AAB
TAFCHS
TAF AMD
KCHS 210255Z 2103/2124 VRB03KT P6SM VCSH BKN060
      TEMPO 2103/2104 6SM -SHRA
     FM210400 VRB03KT P6SM FEW060
     FM211330 28008KT P6SM SCT060
     FM211700 27013G20KT P6SM FEW060=



000
FTUS42 KCHS 210113 AAA
TAFSAV
TAF AMD
KSAV 210113Z 2101/2124 17006KT P6SM VCTS SCT060CB
      TEMPO 2101/2102 4SM -TSRA SCT035CB BKN060
     FM210300 VRB03KT P6SM FEW060
     FM211330 28009KT P6SM FEW060
     FM211700 29010G17KT P6SM FEW060=



000
FTUS42 KCHS 210113 AAA
TAFSAV
TAF AMD
KSAV 210113Z 2101/2124 17006KT P6SM VCTS SCT060CB
      TEMPO 2101/2102 4SM -TSRA SCT035CB BKN060
     FM210300 VRB03KT P6SM FEW060
     FM211330 28009KT P6SM FEW060
     FM211700 29010G17KT P6SM FEW060=



000
FTUS42 KCHS 210112 AAA
TAFCHS
TAF AMD
KCHS 210112Z 2101/2124 VRB05KT P6SM VCSH SCT060
      TEMPO 2101/2102 4SM -SHRA BR SCT035 BKN060
     FM210300 VRB03KT P6SM FEW060
     FM211330 28008KT P6SM SCT060
     FM211700 27013G20KT P6SM FEW060=



000
FTUS42 KCHS 210112 AAA
TAFCHS
TAF AMD
KCHS 210112Z 2101/2124 VRB05KT P6SM VCSH SCT060
      TEMPO 2101/2102 4SM -SHRA BR SCT035 BKN060
     FM210300 VRB03KT P6SM FEW060
     FM211330 28008KT P6SM SCT060
     FM211700 27013G20KT P6SM FEW060=



000
FTUS42 KCHS 202337
TAFCHS
TAF
KCHS 202337Z 2100/2124 VRB05KT P6SM FEW060
     FM211330 28008KT P6SM SCT060
     FM211700 27013G20KT P6SM FEW060=



000
FTUS42 KCHS 202337
TAFSAV
TAF
KSAV 202337Z 2100/2124 17006KT P6SM VCSH SCT060
     FM210200 VRB03KT P6SM FEW060
     FM211330 28009KT P6SM FEW060
     FM211700 29010G17KT P6SM FEW060=



000
FTUS42 KCHS 202123 AAC
TAFCHS
TAF AMD
KCHS 202123Z 2021/2118 VRB05KT P6SM SCT050 BKN200
      TEMPO 2021/2022 5SM -TSRA SCT030CB BKN060
     FM210100 VRB03KT P6SM BKN060 BKN100
     FM211500 27010G16KT P6SM FEW060=



000
FTUS42 KCHS 202109 AAB
TAFCHS
TAF AMD
KCHS 202109Z 2021/2118 VRB05KT P6SM SCT050 BKN200
      TEMPO 2021/2022 VRB15G25KT 2SM +TSRA SCT012 BKN030CB
     FM210100 VRB03KT P6SM BKN060 BKN100
     FM211500 27010G16KT P6SM FEW060=



000
FTUS42 KCHS 201918 AAA
TAFCHS
TAF AMD
KCHS 201918Z 2019/2118 12006KT P6SM SCT040 BKN100
      TEMPO 2019/2021 VRB20G30KT 2SM +TSRA SCT008 BKN030CB OVC080
     FM210100 VRB03KT P6SM BKN060 BKN100
     FM211500 27010G16KT P6SM FEW060=



000
FTUS42 KCHS 201739
TAFSAV
TAF
KSAV 201739Z 2018/2118 26007KT P6SM SCT045 BKN100
      TEMPO 2018/2020 6SM TSRA BKN040CB OVC080
     FM210000 VRB03KT P6SM BKN060 BKN150
     FM211500 27010G16KT P6SM SCT060=



000
FTUS42 KCHS 201739
TAFCHS
TAF
KCHS 201739Z 2018/2118 20006KT P6SM SCT040 BKN100
      TEMPO 2018/2021 VRB10G20KT 6SM TSRA BKN035CB OVC080
     FM210100 VRB03KT P6SM BKN060 BKN100
     FM211500 27010G16KT P6SM FEW060=



000
FTUS42 KCHS 201708 AAA
TAFSAV
TAF AMD
KSAV 201708Z 2017/2112 26007KT P6SM SCT045 BKN100
      TEMPO 2017/2019 6SM TSRA BKN040CB OVC080
     FM202300 22003KT P6SM BKN060 BKN150=



000
FTUS42 KCHS 201708 AAA
TAFSAV
TAF AMD
KSAV 201708Z 2017/2112 26007KT P6SM SCT045 BKN100
      TEMPO 2017/2019 6SM TSRA BKN040CB OVC080
     FM202300 22003KT P6SM BKN060 BKN150=



000
FTUS42 KCHS 201618 AAA
TAFCHS
TAF AMD
KCHS 201618Z 2016/2112 20007KT P6SM SCT040 BKN100
      TEMPO 2016/2020 6SM TSRA BKN035CB OVC080
     FM210000 VRB03KT P6SM BKN060 BKN100=



000
FTUS42 KCHS 201618 AAA
TAFCHS
TAF AMD
KCHS 201618Z 2016/2112 20007KT P6SM SCT040 BKN100
      TEMPO 2016/2020 6SM TSRA BKN035CB OVC080
     FM210000 VRB03KT P6SM BKN060 BKN100=



000
FTUS42 KCHS 201124
TAFCHS
TAF
KCHS 201124Z 2012/2112 29005KT P6SM FEW040 SCT150
     FM201600 20007KT P6SM SCT040 BKN100
      TEMPO 2017/2021 6SM TSRA BKN035CB OVC080
     FM210000 VRB03KT P6SM BKN060 BKN100=



000
FTUS42 KCHS 201124
TAFSAV
TAF
KSAV 201124Z 2012/2112 26004KT P6SM FEW050 SCT150
     FM201800 25007KT P6SM SCT040 BKN200
     FM202300 22003KT P6SM BKN060 BKN150=



000
FTUS42 KCHS 201124
TAFCHS
TAF
KCHS 201124Z 2012/2112 29005KT P6SM FEW040 SCT150
     FM201600 20007KT P6SM SCT040 BKN100
      TEMPO 2017/2021 6SM TSRA BKN035CB OVC080
     FM210000 VRB03KT P6SM BKN060 BKN100=



000
FTUS42 KCHS 201124
TAFSAV
TAF
KSAV 201124Z 2012/2112 26004KT P6SM FEW050 SCT150
     FM201800 25007KT P6SM SCT040 BKN200
     FM202300 22003KT P6SM BKN060 BKN150=



000
FTUS42 KCHS 200523
TAFCHS
TAF
KCHS 200523Z 2006/2106 VRB04KT P6SM FEW040 SCT150
     FM201600 20007KT P6SM SCT040 BKN100
      TEMPO 2018/2022 6SM TSRA BKN035CB OVC080
     FM210000 VRB03KT P6SM BKN060 BKN100=



000
FTUS42 KCHS 200523
TAFSAV
TAF
KSAV 200523Z 2006/2106 VRB03KT P6SM FEW050 SCT150
     FM201800 25007KT P6SM SCT040 BKN200
     FM202200 20004KT P6SM VCSH BKN060 BKN150=



    US Dept of Commerce
    National Oceanic and Atmospheric Administration
    National Weather Service
    1325 East West Highway
    Silver Spring, MD 20910
    Page Author: NWS Internet Services Team
Disclaimer
Information Quality
Credits
Glossary
Privacy Policy
Freedom of Information Act (FOIA)
About Us
Career Opportunities